sensor_id;sensor_type;location;lat;lon;timestamp;P1;P2;P0
55304;PMS7003;65692;51.378;19.824;2023-07-30T00:00:22;3.75;3.75;3.25
55304;PMS7003;65692;51.378;19.824;2023-07-30T00:02:48;2.00;2.00;2.00
55304;PMS7003;65692;51.378;19.824;2023-07-30T00:05:15;3.25;3.25;3.00
55304;PMS7003;65692;51.378;19.824;2023-07-30T00:07:41;3.75;3.00;2.50
55304;PMS7003;65692;51.378;19.824;2023-07-30T00:10:08;3.50;3.50;3.00
55304;PMS7003;65692;51.378;19.824;2023-07-30T00:12:34;4.75;3.25;3.00
55304;PMS7003;65692;51.378;19.824;2023-07-30T00:15:01;6.25;3.00;3.00
55304;PMS7003;65692;51.378;19.824;2023-07-30T00:17:27;3.75;2.75;2.00
55304;PMS7003;65692;51.378;19.824;2023-07-30T00:19:54;4.00;4.00;2.50
55304;PMS7003;65692;51.378;19.824;2023-07-30T00:22:20;3.00;3.00;3.00
55304;PMS7003;65692;51.378;19.824;2023-07-30T00:24:49;4.00;3.00;3.00
55304;PMS7003;65692;51.378;19.824;2023-07-30T00:27:16;3.00;3.00;2.25
55304;PMS7003;65692;51.378;19.824;2023-07-30T00:29:42;3.50;2.00;2.00
55304;PMS7003;65692;51.378;19.824;2023-07-30T00:32:09;4.00;3.25;3.00
55304;PMS7003;65692;51.378;19.824;2023-07-30T00:34:35;4.00;3.00;2.25
55304;PMS7003;65692;51.378;19.824;2023-07-30T00:37:02;4.00;4.00;3.75
55304;PMS7003;65692;51.378;19.824;2023-07-30T00:39:29;4.00;4.00;3.00
55304;PMS7003;65692;51.378;19.824;2023-07-30T00:41:55;3.00;3.00;2.50
55304;PMS7003;65692;51.378;19.824;2023-07-30T00:44:21;3.25;3.25;2.50
55304;PMS7003;65692;51.378;19.824;2023-07-30T00:46:48;6.75;4.25;3.25
55304;PMS7003;65692;51.378;19.824;2023-07-30T00:49:15;3.00;3.00;3.00
55304;PMS7003;65692;51.378;19.824;2023-07-30T00:51:42;8.25;3.00;2.00
55304;PMS7003;65692;51.378;19.824;2023-07-30T00:54:09;3.75;3.00;3.00
55304;PMS7003;65692;51.378;19.824;2023-07-30T00:56:36;3.00;3.00;2.50
55304;PMS7003;65692;51.378;19.824;2023-07-30T00:59:03;3.00;3.00;2.75
55304;PMS7003;65692;51.378;19.824;2023-07-30T01:01:30;5.00;3.25;3.00
55304;PMS7003;65692;51.378;19.824;2023-07-30T01:03:59;3.00;3.00;2.00
55304;PMS7003;65692;51.378;19.824;2023-07-30T01:06:26;7.50;3.00;2.50
55304;PMS7003;65692;51.378;19.824;2023-07-30T01:08:52;3.00;3.00;3.00
55304;PMS7003;65692;51.378;19.824;2023-07-30T01:11:18;3.50;3.00;3.00
55304;PMS7003;65692;51.378;19.824;2023-07-30T01:13:45;3.25;2.50;2.00
55304;PMS7003;65692;51.378;19.824;2023-07-30T01:16:14;2.75;2.75;2.25
55304;PMS7003;65692;51.378;19.824;2023-07-30T01:18:40;3.00;2.75;2.50
55304;PMS7003;65692;51.378;19.824;2023-07-30T01:21:07;3.25;3.25;3.00
55304;PMS7003;65692;51.378;19.824;2023-07-30T01:23:33;2.00;2.00;1.50
55304;PMS7003;65692;51.378;19.824;2023-07-30T01:26:43;2.75;2.75;2.00
55304;PMS7003;65692;51.378;19.824;2023-07-30T01:28:51;3.00;2.25;2.25
55304;PMS7003;65692;51.378;19.824;2023-07-30T01:31:20;2.75;2.75;2.25
55304;PMS7003;65692;51.378;19.824;2023-07-30T01:33:48;3.50;3.25;3.00
55304;PMS7003;65692;51.378;19.824;2023-07-30T01:36:17;5.50;3.00;3.00
55304;PMS7003;65692;51.378;19.824;2023-07-30T01:38:45;3.75;2.75;2.00
55304;PMS7003;65692;51.378;19.824;2023-07-30T01:41:13;3.00;3.00;2.50
55304;PMS7003;65692;51.378;19.824;2023-07-30T01:43:39;3.00;3.00;2.25
55304;PMS7003;65692;51.378;19.824;2023-07-30T01:46:06;2.50;2.50;2.00
55304;PMS7003;65692;51.378;19.824;2023-07-30T01:48:32;4.50;2.25;2.25
55304;PMS7003;65692;51.378;19.824;2023-07-30T01:50:58;3.00;3.00;2.50
55304;PMS7003;65692;51.378;19.824;2023-07-30T01:53:25;2.50;2.50;2.00
55304;PMS7003;65692;51.378;19.824;2023-07-30T01:55:52;2.00;2.00;2.00
55304;PMS7003;65692;51.378;19.824;2023-07-30T01:58:18;3.00;3.00;2.75
55304;PMS7003;65692;51.378;19.824;2023-07-30T02:00:45;6.75;4.50;4.00
55304;PMS7003;65692;51.378;19.824;2023-07-30T02:03:11;3.50;2.00;2.00
55304;PMS7003;65692;51.378;19.824;2023-07-30T02:05:38;2.75;2.75;2.25
55304;PMS7003;65692;51.378;19.824;2023-07-30T02:08:04;3.00;3.00;3.00
55304;PMS7003;65692;51.378;19.824;2023-07-30T02:10:31;2.50;1.50;1.50
55304;PMS7003;65692;51.378;19.824;2023-07-30T02:12:57;3.00;3.00;2.00
55304;PMS7003;65692;51.378;19.824;2023-07-30T02:15:24;3.25;3.00;2.75
55304;PMS7003;65692;51.378;19.824;2023-07-30T02:17:50;1.00;1.00;1.00
55304;PMS7003;65692;51.378;19.824;2023-07-30T02:20:17;3.50;2.50;2.00
55304;PMS7003;65692;51.378;19.824;2023-07-30T02:22:43;5.50;3.00;3.00
55304;PMS7003;65692;51.378;19.824;2023-07-30T02:25:10;3.00;2.75;2.00
55304;PMS7003;65692;51.378;19.824;2023-07-30T02:27:36;3.25;3.25;2.50
55304;PMS7003;65692;51.378;19.824;2023-07-30T02:30:03;3.50;3.50;3.00
55304;PMS7003;65692;51.378;19.824;2023-07-30T02:32:30;4.00;3.00;2.00
55304;PMS7003;65692;51.378;19.824;2023-07-30T02:34:56;3.00;3.00;2.00
55304;PMS7003;65692;51.378;19.824;2023-07-30T02:37:23;3.00;3.00;2.75
55304;PMS7003;65692;51.378;19.824;2023-07-30T02:39:49;3.00;3.00;3.00
55304;PMS7003;65692;51.378;19.824;2023-07-30T02:42:15;2.75;2.75;2.50
55304;PMS7003;65692;51.378;19.824;2023-07-30T02:44:42;4.50;4.00;2.25
55304;PMS7003;65692;51.378;19.824;2023-07-30T02:47:08;3.00;3.00;3.00
55304;PMS7003;65692;51.378;19.824;2023-07-30T02:49:34;3.00;3.00;2.50
55304;PMS7003;65692;51.378;19.824;2023-07-30T02:52:01;3.25;3.25;2.50
55304;PMS7003;65692;51.378;19.824;2023-07-30T02:54:27;3.25;3.00;2.00
55304;PMS7003;65692;51.378;19.824;2023-07-30T02:56:54;2.00;2.00;1.75
55304;PMS7003;65692;51.378;19.824;2023-07-30T02:59:20;4.50;1.50;1.50
55304;PMS7003;65692;51.378;19.824;2023-07-30T03:01:47;3.00;3.00;3.00
55304;PMS7003;65692;51.378;19.824;2023-07-30T03:04:13;3.75;3.00;3.00
55304;PMS7003;65692;51.378;19.824;2023-07-30T03:06:40;4.00;4.00;3.00
55304;PMS7003;65692;51.378;19.824;2023-07-30T03:09:06;5.75;3.50;3.00
55304;PMS7003;65692;51.378;19.824;2023-07-30T03:11:33;3.25;2.50;2.25
55304;PMS7003;65692;51.378;19.824;2023-07-30T03:14:00;3.75;3.00;3.00
55304;PMS7003;65692;51.378;19.824;2023-07-30T03:16:26;5.00;3.00;3.00
55304;PMS7003;65692;51.378;19.824;2023-07-30T03:18:53;5.50;3.25;3.25
55304;PMS7003;65692;51.378;19.824;2023-07-30T03:21:19;6.50;6.50;4.75
55304;PMS7003;65692;51.378;19.824;2023-07-30T03:23:46;5.00;5.00;4.00
55304;PMS7003;65692;51.378;19.824;2023-07-30T03:26:14;5.75;4.00;3.00
55304;PMS7003;65692;51.378;19.824;2023-07-30T03:28:41;4.75;3.75;3.25
55304;PMS7003;65692;51.378;19.824;2023-07-30T03:31:07;4.00;3.25;2.75
55304;PMS7003;65692;51.378;19.824;2023-07-30T03:33:34;5.00;4.00;3.00
55304;PMS7003;65692;51.378;19.824;2023-07-30T03:36:01;5.25;5.25;4.25
55304;PMS7003;65692;51.378;19.824;2023-07-30T03:38:27;6.50;5.75;4.75
55304;PMS7003;65692;51.378;19.824;2023-07-30T03:40:54;6.25;5.00;4.00
55304;PMS7003;65692;51.378;19.824;2023-07-30T03:43:20;9.25;7.75;5.00
55304;PMS7003;65692;51.378;19.824;2023-07-30T03:45:47;6.50;6.50;4.75
55304;PMS7003;65692;51.378;19.824;2023-07-30T03:48:15;9.00;7.50;5.00
55304;PMS7003;65692;51.378;19.824;2023-07-30T03:50:41;10.00;7.00;5.25
55304;PMS7003;65692;51.378;19.824;2023-07-30T03:53:08;7.00;7.00;6.00
55304;PMS7003;65692;51.378;19.824;2023-07-30T03:55:34;5.25;5.25;4.75
55304;PMS7003;65692;51.378;19.824;2023-07-30T03:58:00;6.75;5.25;5.25
55304;PMS7003;65692;51.378;19.824;2023-07-30T04:00:27;6.75;5.25;4.00
55304;PMS7003;65692;51.378;19.824;2023-07-30T04:02:55;7.00;4.00;3.00
55304;PMS7003;65692;51.378;19.824;2023-07-30T04:05:22;5.50;5.50;4.25
55304;PMS7003;65692;51.378;19.824;2023-07-30T04:07:48;8.75;7.75;7.00
55304;PMS7003;65692;51.378;19.824;2023-07-30T04:10:15;7.00;7.00;4.75
55304;PMS7003;65692;51.378;19.824;2023-07-30T04:12:41;5.50;5.50;4.25
55304;PMS7003;65692;51.378;19.824;2023-07-30T04:15:08;7.00;7.00;6.00
55304;PMS7003;65692;51.378;19.824;2023-07-30T04:17:35;8.00;8.00;5.75
55304;PMS7003;65692;51.378;19.824;2023-07-30T04:20:02;8.00;8.00;6.25
55304;PMS7003;65692;51.378;19.824;2023-07-30T04:22:29;7.50;6.25;5.25
55304;PMS7003;65692;51.378;19.824;2023-07-30T04:24:55;7.00;6.25;5.00
55304;PMS7003;65692;51.378;19.824;2023-07-30T04:27:22;6.50;6.50;4.75
55304;PMS7003;65692;51.378;19.824;2023-07-30T04:29:49;4.50;4.00;4.00
55304;PMS7003;65692;51.378;19.824;2023-07-30T04:32:15;4.25;4.25;3.25
55304;PMS7003;65692;51.378;19.824;2023-07-30T04:34:41;6.50;5.50;4.25
55304;PMS7003;65692;51.378;19.824;2023-07-30T04:37:08;10.00;9.00;6.25
55304;PMS7003;65692;51.378;19.824;2023-07-30T04:39:35;8.75;8.50;7.00
55304;PMS7003;65692;51.378;19.824;2023-07-30T04:42:02;13.75;10.50;8.50
55304;PMS7003;65692;51.378;19.824;2023-07-30T04:44:28;9.00;9.00;8.00
55304;PMS7003;65692;51.378;19.824;2023-07-30T04:46:55;9.50;8.00;6.25
55304;PMS7003;65692;51.378;19.824;2023-07-30T04:49:21;9.75;7.50;7.00
55304;PMS7003;65692;51.378;19.824;2023-07-30T04:51:48;9.50;9.50;7.00
55304;PMS7003;65692;51.378;19.824;2023-07-30T04:54:14;10.75;8.50;6.00
55304;PMS7003;65692;51.378;19.824;2023-07-30T04:56:41;7.00;7.00;6.00
55304;PMS7003;65692;51.378;19.824;2023-07-30T04:59:07;7.75;7.25;6.75
55304;PMS7003;65692;51.378;19.824;2023-07-30T05:01:34;13.50;9.00;8.50
55304;PMS7003;65692;51.378;19.824;2023-07-30T05:04:01;7.25;7.25;6.00
55304;PMS7003;65692;51.378;19.824;2023-07-30T05:06:28;10.00;8.00;7.00
55304;PMS7003;65692;51.378;19.824;2023-07-30T05:08:55;9.50;7.75;6.00
55304;PMS7003;65692;51.378;19.824;2023-07-30T05:11:23;11.00;8.75;7.00
55304;PMS7003;65692;51.378;19.824;2023-07-30T05:13:49;8.25;8.00;5.50
55304;PMS7003;65692;51.378;19.824;2023-07-30T05:16:16;9.75;7.75;6.00
55304;PMS7003;65692;51.378;19.824;2023-07-30T05:18:42;7.00;7.00;5.75
55304;PMS7003;65692;51.378;19.824;2023-07-30T05:21:11;11.00;9.50;7.50
55304;PMS7003;65692;51.378;19.824;2023-07-30T05:23:37;9.75;7.50;5.00
55304;PMS7003;65692;51.378;19.824;2023-07-30T05:26:04;5.50;5.50;5.25
55304;PMS7003;65692;51.378;19.824;2023-07-30T05:28:30;4.00;4.00;3.50
55304;PMS7003;65692;51.378;19.824;2023-07-30T05:30:57;6.00;6.00;4.50
55304;PMS7003;65692;51.378;19.824;2023-07-30T05:33:23;6.00;4.75;3.75
55304;PMS7003;65692;51.378;19.824;2023-07-30T05:35:50;5.25;5.25;4.00
55304;PMS7003;65692;51.378;19.824;2023-07-30T05:38:17;8.50;6.00;5.50
55304;PMS7003;65692;51.378;19.824;2023-07-30T05:40:43;5.00;4.50;4.00
55304;PMS7003;65692;51.378;19.824;2023-07-30T05:43:10;8.75;6.75;4.75
55304;PMS7003;65692;51.378;19.824;2023-07-30T05:45:36;5.50;5.00;4.00
55304;PMS7003;65692;51.378;19.824;2023-07-30T05:48:03;6.25;5.25;5.00
55304;PMS7003;65692;51.378;19.824;2023-07-30T05:50:29;5.00;5.00;4.00
55304;PMS7003;65692;51.378;19.824;2023-07-30T05:52:56;6.50;6.50;5.00
55304;PMS7003;65692;51.378;19.824;2023-07-30T05:55:22;7.00;5.75;5.00
55304;PMS7003;65692;51.378;19.824;2023-07-30T05:57:49;5.25;5.00;4.00
55304;PMS7003;65692;51.378;19.824;2023-07-30T06:00:15;5.75;5.75;5.00
55304;PMS7003;65692;51.378;19.824;2023-07-30T06:02:42;6.50;6.50;5.75
55304;PMS7003;65692;51.378;19.824;2023-07-30T06:05:09;8.75;6.25;5.00
55304;PMS7003;65692;51.378;19.824;2023-07-30T06:07:35;8.00;6.25;4.00
55304;PMS7003;65692;51.378;19.824;2023-07-30T06:10:02;10.25;6.00;5.75
55304;PMS7003;65692;51.378;19.824;2023-07-30T06:12:28;8.75;6.75;6.00
55304;PMS7003;65692;51.378;19.824;2023-07-30T06:14:55;6.75;6.00;5.00
55304;PMS7003;65692;51.378;19.824;2023-07-30T06:17:21;11.75;8.00;6.50
55304;PMS7003;65692;51.378;19.824;2023-07-30T06:19:48;7.00;6.00;5.00
55304;PMS7003;65692;51.378;19.824;2023-07-30T06:22:14;5.25;5.25;5.00
55304;PMS7003;65692;51.378;19.824;2023-07-30T06:24:41;6.00;6.00;5.00
55304;PMS7003;65692;51.378;19.824;2023-07-30T06:27:07;5.50;5.50;4.75
55304;PMS7003;65692;51.378;19.824;2023-07-30T06:29:36;8.00;6.25;6.00
55304;PMS7003;65692;51.378;19.824;2023-07-30T06:32:02;7.00;7.00;6.00
55304;PMS7003;65692;51.378;19.824;2023-07-30T06:34:29;7.00;7.00;6.00
55304;PMS7003;65692;51.378;19.824;2023-07-30T06:36:55;7.00;6.25;6.00
55304;PMS7003;65692;51.378;19.824;2023-07-30T06:39:22;7.25;7.25;6.00
55304;PMS7003;65692;51.378;19.824;2023-07-30T06:41:48;6.50;6.50;5.50
55304;PMS7003;65692;51.378;19.824;2023-07-30T06:44:15;6.00;6.00;5.25
55304;PMS7003;65692;51.378;19.824;2023-07-30T06:46:42;7.25;7.00;5.75
55304;PMS7003;65692;51.378;19.824;2023-07-30T06:49:08;6.75;5.00;5.00
55304;PMS7003;65692;51.378;19.824;2023-07-30T06:51:35;7.00;5.00;4.00
55304;PMS7003;65692;51.378;19.824;2023-07-30T06:54:02;5.75;5.75;4.25
55304;PMS7003;65692;51.378;19.824;2023-07-30T06:56:28;7.25;7.25;6.75
55304;PMS7003;65692;51.378;19.824;2023-07-30T06:58:55;6.00;5.50;4.75
55304;PMS7003;65692;51.378;19.824;2023-07-30T07:01:21;7.50;7.50;5.75
55304;PMS7003;65692;51.378;19.824;2023-07-30T07:03:48;10.00;8.00;6.25
55304;PMS7003;65692;51.378;19.824;2023-07-30T07:06:14;7.00;7.00;6.00
55304;PMS7003;65692;51.378;19.824;2023-07-30T07:08:41;7.50;7.00;5.00
55304;PMS7003;65692;51.378;19.824;2023-07-30T07:11:07;11.00;7.75;6.75
55304;PMS7003;65692;51.378;19.824;2023-07-30T07:13:34;6.75;6.00;5.00
55304;PMS7003;65692;51.378;19.824;2023-07-30T07:16:00;9.00;7.25;6.25
55304;PMS7003;65692;51.378;19.824;2023-07-30T07:18:27;6.75;6.75;6.00
55304;PMS7003;65692;51.378;19.824;2023-07-30T07:20:53;9.25;8.75;7.25
55304;PMS7003;65692;51.378;19.824;2023-07-30T07:23:19;10.75;9.75;8.25
55304;PMS7003;65692;51.378;19.824;2023-07-30T07:25:46;9.00;9.00;7.50
55304;PMS7003;65692;51.378;19.824;2023-07-30T07:28:12;12.00;8.75;7.75
55304;PMS7003;65692;51.378;19.824;2023-07-30T07:30:39;9.00;9.00;8.00
55304;PMS7003;65692;51.378;19.824;2023-07-30T07:33:05;11.75;11.50;9.50
55304;PMS7003;65692;51.378;19.824;2023-07-30T07:35:32;17.25;17.25;15.25
55304;PMS7003;65692;51.378;19.824;2023-07-30T07:37:58;12.25;10.75;9.00
55304;PMS7003;65692;51.378;19.824;2023-07-30T07:40:25;13.50;11.50;8.75
55304;PMS7003;65692;51.378;19.824;2023-07-30T07:42:51;9.00;9.00;8.00
55304;PMS7003;65692;51.378;19.824;2023-07-30T07:45:18;11.75;11.50;9.25
55304;PMS7003;65692;51.378;19.824;2023-07-30T07:47:45;12.25;9.00;8.00
55304;PMS7003;65692;51.378;19.824;2023-07-30T07:50:12;7.00;7.00;5.75
55304;PMS7003;65692;51.378;19.824;2023-07-30T07:52:38;8.75;8.50;8.00
55304;PMS7003;65692;51.378;19.824;2023-07-30T07:55:05;12.75;10.00;8.00
55304;PMS7003;65692;51.378;19.824;2023-07-30T07:57:31;11.75;11.50;9.25
55304;PMS7003;65692;51.378;19.824;2023-07-30T07:59:58;6.50;6.50;5.50
55304;PMS7003;65692;51.378;19.824;2023-07-30T08:02:24;10.25;8.00;7.00
55304;PMS7003;65692;51.378;19.824;2023-07-30T08:04:51;7.25;7.00;6.00
55304;PMS7003;65692;51.378;19.824;2023-07-30T08:07:18;7.00;7.00;7.00
55304;PMS7003;65692;51.378;19.824;2023-07-30T08:09:44;6.00;6.00;4.00
55304;PMS7003;65692;51.378;19.824;2023-07-30T08:12:11;8.25;6.50;6.25
55304;PMS7003;65692;51.378;19.824;2023-07-30T08:14:38;8.25;8.25;6.00
55304;PMS7003;65692;51.378;19.824;2023-07-30T08:17:05;7.50;7.50;6.25
55304;PMS7003;65692;51.378;19.824;2023-07-30T08:19:31;9.25;9.00;7.00
55304;PMS7003;65692;51.378;19.824;2023-07-30T08:21:58;7.75;7.75;6.75
55304;PMS7003;65692;51.378;19.824;2023-07-30T08:24:25;9.75;7.25;6.00
55304;PMS7003;65692;51.378;19.824;2023-07-30T08:26:51;9.75;8.25;7.00
55304;PMS7003;65692;51.378;19.824;2023-07-30T08:29:18;9.75;9.00;8.00
55304;PMS7003;65692;51.378;19.824;2023-07-30T08:31:44;9.00;7.50;6.50
55304;PMS7003;65692;51.378;19.824;2023-07-30T08:34:11;8.25;6.50;6.00
55304;PMS7003;65692;51.378;19.824;2023-07-30T08:36:37;8.50;7.50;7.00
55304;PMS7003;65692;51.378;19.824;2023-07-30T08:39:04;12.25;9.00;7.00
55304;PMS7003;65692;51.378;19.824;2023-07-30T08:41:31;9.00;8.75;7.00
55304;PMS7003;65692;51.378;19.824;2023-07-30T08:43:58;8.50;8.50;7.00
55304;PMS7003;65692;51.378;19.824;2023-07-30T08:46:25;8.75;7.50;7.00
55304;PMS7003;65692;51.378;19.824;2023-07-30T08:48:51;7.00;7.00;5.75
55304;PMS7003;65692;51.378;19.824;2023-07-30T08:51:18;7.25;7.00;6.75
55304;PMS7003;65692;51.378;19.824;2023-07-30T08:53:45;8.75;7.75;7.00
55304;PMS7003;65692;51.378;19.824;2023-07-30T08:56:12;5.00;5.00;4.25
55304;PMS7003;65692;51.378;19.824;2023-07-30T08:58:39;6.75;5.50;5.00
55304;PMS7003;65692;51.378;19.824;2023-07-30T09:01:08;7.00;6.50;6.00
55304;PMS7003;65692;51.378;19.824;2023-07-30T09:03:37;8.00;7.00;5.75
55304;PMS7003;65692;51.378;19.824;2023-07-30T09:06:04;6.75;6.00;5.75
55304;PMS7003;65692;51.378;19.824;2023-07-30T09:08:30;6.75;6.75;5.75
55304;PMS7003;65692;51.378;19.824;2023-07-30T09:11:08;7.00;7.00;5.33
55304;PMS7003;65692;51.378;19.824;2023-07-30T09:13:38;6.00;6.00;5.50
55304;PMS7003;65692;51.378;19.824;2023-07-30T09:16:08;7.25;6.00;5.75
55304;PMS7003;65692;51.378;19.824;2023-07-30T09:18:43;5.00;4.00;3.25
55304;PMS7003;65692;51.378;19.824;2023-07-30T09:21:13;6.50;5.75;5.75
55304;PMS7003;65692;51.378;19.824;2023-07-30T09:23:43;5.00;5.00;5.00
55304;PMS7003;65692;51.378;19.824;2023-07-30T09:26:10;8.75;7.25;6.50
55304;PMS7003;65692;51.378;19.824;2023-07-30T09:28:37;5.25;5.25;4.50
55304;PMS7003;65692;51.378;19.824;2023-07-30T09:31:06;4.00;4.00;4.00
55304;PMS7003;65692;51.378;19.824;2023-07-30T09:33:47;6.75;6.75;6.00
55304;PMS7003;65692;51.378;19.824;2023-07-30T09:36:13;4.50;4.50;3.75
55304;PMS7003;65692;51.378;19.824;2023-07-30T09:38:41;7.00;4.75;3.75
55304;PMS7003;65692;51.378;19.824;2023-07-30T09:41:08;6.50;6.50;5.75
55304;PMS7003;65692;51.378;19.824;2023-07-30T09:43:37;5.50;5.25;4.50
55304;PMS7003;65692;51.378;19.824;2023-07-30T09:46:04;6.25;6.25;4.25
55304;PMS7003;65692;51.378;19.824;2023-07-30T09:48:31;6.75;5.50;4.75
55304;PMS7003;65692;51.378;19.824;2023-07-30T09:51:01;6.00;6.00;4.00
55304;PMS7003;65692;51.378;19.824;2023-07-30T09:53:32;4.25;4.25;3.75
55304;PMS7003;65692;51.378;19.824;2023-07-30T09:56:03;4.50;4.50;3.50
55304;PMS7003;65692;51.378;19.824;2023-07-30T09:58:30;4.25;4.25;3.00
55304;PMS7003;65692;51.378;19.824;2023-07-30T10:01:00;4.50;4.50;4.25
55304;PMS7003;65692;51.378;19.824;2023-07-30T10:03:27;7.00;6.50;5.00
55304;PMS7003;65692;51.378;19.824;2023-07-30T10:06:00;6.00;5.00;4.00
55304;PMS7003;65692;51.378;19.824;2023-07-30T10:08:29;3.00;3.00;3.00
55304;PMS7003;65692;51.378;19.824;2023-07-30T10:10:58;6.00;6.00;5.00
55304;PMS7003;65692;51.378;19.824;2023-07-30T10:13:26;6.25;6.00;4.25
55304;PMS7003;65692;51.378;19.824;2023-07-30T10:15:54;6.25;5.00;5.00
55304;PMS7003;65692;51.378;19.824;2023-07-30T10:18:21;6.00;6.00;4.50
55304;PMS7003;65692;51.378;19.824;2023-07-30T10:20:54;4.75;4.75;4.00
55304;PMS7003;65692;51.378;19.824;2023-07-30T10:23:26;6.00;6.00;5.00
55304;PMS7003;65692;51.378;19.824;2023-07-30T10:25:53;6.50;6.50;5.00
55304;PMS7003;65692;51.378;19.824;2023-07-30T10:28:34;7.25;4.75;3.75
55304;PMS7003;65692;51.378;19.824;2023-07-30T10:31:04;6.00;5.75;5.00
55304;PMS7003;65692;51.378;19.824;2023-07-30T10:33:47;4.75;4.75;4.25
55304;PMS7003;65692;51.378;19.824;2023-07-30T10:36:18;7.00;6.00;5.00
55304;PMS7003;65692;51.378;19.824;2023-07-30T10:38:45;5.25;5.25;4.25
55304;PMS7003;65692;51.378;19.824;2023-07-30T10:41:12;7.00;6.00;4.75
55304;PMS7003;65692;51.378;19.824;2023-07-30T10:43:40;5.25;5.25;3.75
55304;PMS7003;65692;51.378;19.824;2023-07-30T10:46:08;6.25;5.25;3.75
55304;PMS7003;65692;51.378;19.824;2023-07-30T10:48:36;5.25;5.25;4.75
55304;PMS7003;65692;51.378;19.824;2023-07-30T10:51:04;4.75;4.75;3.75
55304;PMS7003;65692;51.378;19.824;2023-07-30T10:53:30;4.50;4.50;4.00
55304;PMS7003;65692;51.378;19.824;2023-07-30T10:55:57;6.75;5.50;4.50
55304;PMS7003;65692;51.378;19.824;2023-07-30T10:58:26;5.25;5.25;4.50
55304;PMS7003;65692;51.378;19.824;2023-07-30T11:00:53;6.00;5.00;4.25
55304;PMS7003;65692;51.378;19.824;2023-07-30T11:03:20;5.25;5.25;4.25
55304;PMS7003;65692;51.378;19.824;2023-07-30T11:05:47;6.25;6.25;5.00
55304;PMS7003;65692;51.378;19.824;2023-07-30T11:08:14;3.00;2.75;2.25
55304;PMS7003;65692;51.378;19.824;2023-07-30T11:10:42;5.50;5.50;4.00
55304;PMS7003;65692;51.378;19.824;2023-07-30T11:13:08;5.25;5.25;4.75
55304;PMS7003;65692;51.378;19.824;2023-07-30T11:15:40;3.25;3.25;2.75
55304;PMS7003;65692;51.378;19.824;2023-07-30T11:18:07;4.75;4.75;3.75
55304;PMS7003;65692;51.378;19.824;2023-07-30T11:20:33;5.75;5.25;4.25
55304;PMS7003;65692;51.378;19.824;2023-07-30T11:23:00;3.75;3.75;3.25
55304;PMS7003;65692;51.378;19.824;2023-07-30T11:25:26;5.00;4.00;3.00
55304;PMS7003;65692;51.378;19.824;2023-07-30T11:27:53;5.50;3.75;3.50
55304;PMS7003;65692;51.378;19.824;2023-07-30T11:30:20;4.00;4.00;3.00
55304;PMS7003;65692;51.378;19.824;2023-07-30T11:32:46;4.00;3.75;3.50
55304;PMS7003;65692;51.378;19.824;2023-07-30T11:35:13;5.00;5.00;4.00
55304;PMS7003;65692;51.378;19.824;2023-07-30T11:37:41;5.50;5.00;4.50
55304;PMS7003;65692;51.378;19.824;2023-07-30T11:40:09;5.00;4.25;3.25
55304;PMS7003;65692;51.378;19.824;2023-07-30T11:42:36;4.25;3.75;3.75
55304;PMS7003;65692;51.378;19.824;2023-07-30T11:45:19;4.00;4.00;3.25
55304;PMS7003;65692;51.378;19.824;2023-07-30T11:47:47;3.75;3.75;3.25
55304;PMS7003;65692;51.378;19.824;2023-07-30T11:50:14;5.00;5.00;4.00
55304;PMS7003;65692;51.378;19.824;2023-07-30T11:55:19;2.75;2.75;2.50
55304;PMS7003;65692;51.378;19.824;2023-07-30T11:57:46;4.00;4.00;3.25
55304;PMS7003;65692;51.378;19.824;2023-07-30T12:00:13;4.50;4.00;4.00
55304;PMS7003;65692;51.378;19.824;2023-07-30T12:02:39;5.25;4.75;3.25
55304;PMS7003;65692;51.378;19.824;2023-07-30T12:05:07;4.25;4.25;3.75
55304;PMS7003;65692;51.378;19.824;2023-07-30T12:07:40;5.50;4.25;4.00
55304;PMS7003;65692;51.378;19.824;2023-07-30T12:10:10;3.00;3.00;2.50
55304;PMS7003;65692;51.378;19.824;2023-07-30T12:12:44;1.75;1.75;1.00
55304;PMS7003;65692;51.378;19.824;2023-07-30T12:15:11;2.75;2.75;2.75
55304;PMS7003;65692;51.378;19.824;2023-07-30T12:17:38;5.00;5.00;4.00
55304;PMS7003;65692;51.378;19.824;2023-07-30T12:20:05;4.25;4.25;4.00
55304;PMS7003;65692;51.378;19.824;2023-07-30T12:22:35;3.25;3.25;2.50
55304;PMS7003;65692;51.378;19.824;2023-07-30T12:25:02;4.00;4.00;3.50
55304;PMS7003;65692;51.378;19.824;2023-07-30T12:27:29;5.25;5.25;4.00
55304;PMS7003;65692;51.378;19.824;2023-07-30T12:29:56;4.00;4.00;3.75
55304;PMS7003;65692;51.378;19.824;2023-07-30T12:32:23;4.50;4.50;3.50
55304;PMS7003;65692;51.378;19.824;2023-07-30T12:34:50;4.50;4.50;3.75
55304;PMS7003;65692;51.378;19.824;2023-07-30T12:37:17;5.25;5.25;4.75
55304;PMS7003;65692;51.378;19.824;2023-07-30T12:39:43;4.25;4.00;3.75
55304;PMS7003;65692;51.378;19.824;2023-07-30T12:42:10;4.00;4.00;3.50
55304;PMS7003;65692;51.378;19.824;2023-07-30T12:44:36;4.75;4.75;3.75
55304;PMS7003;65692;51.378;19.824;2023-07-30T12:47:03;3.50;3.00;2.75
55304;PMS7003;65692;51.378;19.824;2023-07-30T12:49:30;4.50;4.50;4.25
55304;PMS7003;65692;51.378;19.824;2023-07-30T12:51:56;3.75;3.75;3.75
55304;PMS7003;65692;51.378;19.824;2023-07-30T12:54:23;3.75;3.25;2.75
55304;PMS7003;65692;51.378;19.824;2023-07-30T12:56:49;4.25;4.00;3.00
55304;PMS7003;65692;51.378;19.824;2023-07-30T12:59:16;3.50;3.50;3.50
55304;PMS7003;65692;51.378;19.824;2023-07-30T13:01:42;4.75;4.50;3.00
55304;PMS7003;65692;51.378;19.824;2023-07-30T13:04:13;3.25;3.25;3.00
55304;PMS7003;65692;51.378;19.824;2023-07-30T13:06:39;4.75;3.50;3.25
55304;PMS7003;65692;51.378;19.824;2023-07-30T13:09:06;7.25;5.75;4.75
55304;PMS7003;65692;51.378;19.824;2023-07-30T13:11:35;3.75;3.75;3.00
55304;PMS7003;65692;51.378;19.824;2023-07-30T13:14:03;4.25;4.00;3.75
55304;PMS7003;65692;51.378;19.824;2023-07-30T13:16:30;2.00;2.00;1.75
55304;PMS7003;65692;51.378;19.824;2023-07-30T13:18:58;3.75;2.75;2.00
55304;PMS7003;65692;51.378;19.824;2023-07-30T13:21:25;3.00;3.00;2.75
55304;PMS7003;65692;51.378;19.824;2023-07-30T13:23:52;4.50;4.50;3.50
55304;PMS7003;65692;51.378;19.824;2023-07-30T13:26:18;3.25;3.25;2.75
55304;PMS7003;65692;51.378;19.824;2023-07-30T13:28:45;3.00;3.00;2.00
55304;PMS7003;65692;51.378;19.824;2023-07-30T13:31:11;5.25;3.50;3.50
55304;PMS7003;65692;51.378;19.824;2023-07-30T13:33:38;3.00;3.00;3.00
55304;PMS7003;65692;51.378;19.824;2023-07-30T13:36:05;5.00;3.75;3.00
55304;PMS7003;65692;51.378;19.824;2023-07-30T13:38:31;3.00;3.00;2.75
55304;PMS7003;65692;51.378;19.824;2023-07-30T13:40:58;3.00;3.00;1.25
55304;PMS7003;65692;51.378;19.824;2023-07-30T13:43:24;3.00;2.50;2.25
55304;PMS7003;65692;51.378;19.824;2023-07-30T13:45:51;4.50;4.50;3.00
55304;PMS7003;65692;51.378;19.824;2023-07-30T13:48:19;3.25;3.25;3.00
55304;PMS7003;65692;51.378;19.824;2023-07-30T13:50:46;3.25;3.25;3.00
55304;PMS7003;65692;51.378;19.824;2023-07-30T13:53:12;4.75;4.75;2.75
55304;PMS7003;65692;51.378;19.824;2023-07-30T13:55:39;5.00;5.00;4.00
55304;PMS7003;65692;51.378;19.824;2023-07-30T13:58:05;3.25;3.25;2.75
55304;PMS7003;65692;51.378;19.824;2023-07-30T14:00:31;6.50;4.75;4.75
55304;PMS7003;65692;51.378;19.824;2023-07-30T14:02:58;5.75;5.75;5.00
55304;PMS7003;65692;51.378;19.824;2023-07-30T14:05:25;3.00;3.00;2.25
55304;PMS7003;65692;51.378;19.824;2023-07-30T14:07:51;8.00;7.00;6.25
55304;PMS7003;65692;51.378;19.824;2023-07-30T14:10:20;6.50;5.00;4.75